createdAt,value
2023-10-30T00:00:53.320Z,10.32
2023-10-30T00:03:40.250Z,9.50
2023-10-30T00:06:26.035Z,9.68
2023-10-30T00:09:12.326Z,9.32
2023-10-30T00:11:58.791Z,8.68
2023-10-30T00:14:44.864Z,7.70
2023-10-30T00:17:34.041Z,8.63
2023-10-30T00:20:20.188Z,7.63
2023-10-30T00:23:06.235Z,7.20
2023-10-30T00:25:53.034Z,7.57
2023-10-30T00:28:38.902Z,7.03
2023-10-30T00:31:25.240Z,6.60
2023-10-30T00:34:13.219Z,6.63
2023-10-30T00:36:59.108Z,6.22
2023-10-30T00:39:44.894Z,5.72
2023-10-30T00:42:30.798Z,5.97
2023-10-30T00:45:18.341Z,6.18
2023-10-30T00:48:04.505Z,5.32
2023-10-30T00:50:50.362Z,6.22
2023-10-30T00:53:36.275Z,5.45
2023-10-30T00:56:22.091Z,5.75
2023-10-30T00:59:08.408Z,5.63
2023-10-30T01:01:54.842Z,5.72
2023-10-30T01:04:41.170Z,6.20
2023-10-30T01:07:27.368Z,6.00
2023-10-30T01:10:13.443Z,5.88
2023-10-30T01:12:59.139Z,6.72
2023-10-30T01:15:45.041Z,6.30
2023-10-30T01:18:31.407Z,6.50
2023-10-30T01:21:18.615Z,6.38
2023-10-30T01:24:06.525Z,6.50
2023-10-30T01:26:52.885Z,6.80
2023-10-30T01:29:38.455Z,6.50
2023-10-30T01:32:24.334Z,6.25
2023-10-30T01:35:10.056Z,6.40
2023-10-30T01:37:56.248Z,5.88
2023-10-30T01:40:49.361Z,5.97
2023-10-30T01:43:35.478Z,5.90
2023-10-30T01:46:21.266Z,6.95
2023-10-30T01:49:07.026Z,6.40
2023-10-30T01:51:52.523Z,6.22
2023-10-30T01:54:39.132Z,5.40
2023-10-30T01:57:28.475Z,5.63
2023-10-30T02:00:16.059Z,5.22
2023-10-30T02:03:01.926Z,5.72
2023-10-30T02:05:48.163Z,5.80
2023-10-30T02:08:33.662Z,5.78
2023-10-30T02:11:19.712Z,4.75
2023-10-30T02:14:05.808Z,4.88
2023-10-30T02:16:52.426Z,4.68
2023-10-30T02:19:38.283Z,4.40
2023-10-30T02:22:23.956Z,4.30
2023-10-30T02:25:10.061Z,4.07
2023-10-30T02:27:55.994Z,4.22
2023-10-30T02:30:41.726Z,3.85
2023-10-30T02:33:27.808Z,3.95
2023-10-30T02:36:13.802Z,4.30
2023-10-30T02:39:00.196Z,4.57
2023-10-30T02:41:45.812Z,4.35
2023-10-30T02:44:31.948Z,3.95
2023-10-30T02:47:17.939Z,4.30
2023-10-30T02:50:04.724Z,4.20
2023-10-30T02:52:51.569Z,4.20
2023-10-30T02:55:37.924Z,4.00
2023-10-30T02:58:23.659Z,3.53
2023-10-30T03:01:09.513Z,4.47
2023-10-30T03:03:55.297Z,4.32
2023-10-30T03:06:41.940Z,4.13
2023-10-30T03:09:29.698Z,3.95
2023-10-30T03:12:15.485Z,5.45
2023-10-30T03:15:01.113Z,4.60
2023-10-30T03:17:47.551Z,3.75
2023-10-30T03:20:33.512Z,4.40
2023-10-30T03:23:21.368Z,4.43
2023-10-30T03:26:07.705Z,4.22
2023-10-30T03:28:53.502Z,3.95
2023-10-30T03:31:39.117Z,4.00
2023-10-30T03:34:25.271Z,3.88
2023-10-30T03:37:12.435Z,4.53
2023-10-30T03:39:59.712Z,4.40
2023-10-30T03:42:46.388Z,4.38
2023-10-30T03:45:32.239Z,4.20
2023-10-30T03:48:18.242Z,4.30
2023-10-30T03:51:05.258Z,4.50
2023-10-30T03:53:50.654Z,4.55
2023-10-30T03:56:36.842Z,4.00
2023-10-30T03:59:22.721Z,4.65
2023-10-30T04:02:09.000Z,4.80
2023-10-30T04:04:55.715Z,4.78
2023-10-30T04:07:41.804Z,6.03
2023-10-30T04:10:27.525Z,5.30
2023-10-30T04:13:13.394Z,4.80
2023-10-30T04:15:59.454Z,4.60
2023-10-30T04:18:45.753Z,5.20
2023-10-30T04:21:31.986Z,4.13
2023-10-30T04:24:18.151Z,5.18
2023-10-30T04:27:04.504Z,5.03
2023-10-30T04:29:50.472Z,4.65
2023-10-30T04:32:36.492Z,5.00
2023-10-30T04:35:22.612Z,4.45
2023-10-30T04:38:08.291Z,4.50
2023-10-30T04:40:54.655Z,4.38
2023-10-30T04:43:40.349Z,4.30
2023-10-30T04:46:26.532Z,4.15
2023-10-30T04:49:12.363Z,4.45
2023-10-30T04:51:58.218Z,4.68
2023-10-30T04:54:43.768Z,4.75
2023-10-30T04:57:29.799Z,4.68
2023-10-30T05:00:16.088Z,4.25
2023-10-30T05:03:01.905Z,4.97
2023-10-30T05:05:48.533Z,4.88
2023-10-30T05:08:36.617Z,4.90
2023-10-30T05:11:22.237Z,4.45
2023-10-30T05:14:08.625Z,4.45
2023-10-30T05:16:55.130Z,5.20
2023-10-30T05:19:41.273Z,4.47
2023-10-30T05:22:28.780Z,4.63
2023-10-30T05:25:14.776Z,4.70
2023-10-30T05:28:01.408Z,4.90
2023-10-30T05:30:49.472Z,4.38
2023-10-30T05:33:35.685Z,4.85
2023-10-30T05:36:22.037Z,4.72
2023-10-30T05:39:07.863Z,4.63
2023-10-30T05:41:53.597Z,5.32
2023-10-30T05:44:39.364Z,4.72
2023-10-30T05:47:25.801Z,5.10
2023-10-30T05:50:11.815Z,4.78
2023-10-30T05:52:57.713Z,5.63
2023-10-30T05:55:43.918Z,4.35
2023-10-30T05:58:29.934Z,9.10
2023-10-30T06:01:15.663Z,8.05
2023-10-30T06:04:02.202Z,24.63
2023-10-30T06:06:48.737Z,11.13
2023-10-30T06:09:36.058Z,12.30
2023-10-30T06:12:22.006Z,21.48
2023-10-30T06:15:08.998Z,43.42
2023-10-30T06:17:55.226Z,49.70
2023-10-30T06:20:41.560Z,50.83
2023-10-30T06:23:27.535Z,38.65
2023-10-30T06:26:17.713Z,38.70
2023-10-30T06:29:03.635Z,26.42
2023-10-30T06:31:49.480Z,32.67
2023-10-30T06:34:35.281Z,20.30
2023-10-30T06:37:21.175Z,11.82
2023-10-30T06:40:07.597Z,15.25
2023-10-30T06:42:53.957Z,12.80
2023-10-30T06:45:39.898Z,16.13
2023-10-30T06:48:25.680Z,12.63
2023-10-30T06:51:11.587Z,14.25
2023-10-30T06:53:57.448Z,20.80
2023-10-30T06:56:43.662Z,16.90
2023-10-30T06:59:29.462Z,29.17
2023-10-30T07:02:15.547Z,27.48
2023-10-30T07:05:01.722Z,70.35
2023-10-30T07:07:47.639Z,62.67
2023-10-30T07:10:33.643Z,27.13
2023-10-30T07:13:19.180Z,23.33
2023-10-30T07:16:06.301Z,21.98
2023-10-30T07:18:52.383Z,23.75
2023-10-30T07:21:41.092Z,21.50
2023-10-30T07:24:28.218Z,20.33
2023-10-30T07:27:15.942Z,21.85
2023-10-30T07:30:04.644Z,15.00
2023-10-30T07:32:51.404Z,20.08
2023-10-30T07:35:37.086Z,8.77
2023-10-30T07:38:23.283Z,13.45
2023-10-30T07:41:11.976Z,6.90
2023-10-30T07:43:58.551Z,11.98
2023-10-30T07:46:44.284Z,9.77
2023-10-30T07:49:30.699Z,13.05
2023-10-30T07:52:16.290Z,9.88
2023-10-30T07:55:06.222Z,7.40
2023-10-30T07:57:51.841Z,7.00
2023-10-30T08:00:54.942Z,4.88
2023-10-30T08:03:43.533Z,6.47
2023-10-30T08:06:29.887Z,6.18
2023-10-30T08:09:17.418Z,5.57
2023-10-30T08:12:03.864Z,5.15
2023-10-30T08:14:49.593Z,2.88
2023-10-30T08:17:35.881Z,4.20
2023-10-30T08:20:21.954Z,3.67
2023-10-30T08:23:07.988Z,3.75
2023-10-30T08:25:54.108Z,3.80
2023-10-30T08:28:45.943Z,3.47
2023-10-30T08:31:32.299Z,3.25
2023-10-30T08:34:18.756Z,3.30
2023-10-30T08:37:04.672Z,3.50
2023-10-30T08:39:50.772Z,3.85
2023-10-30T08:42:36.711Z,3.20
2023-10-30T08:45:23.575Z,3.10
2023-10-30T08:48:18.656Z,3.55
2023-10-30T08:51:06.047Z,2.80
2023-10-30T08:53:52.461Z,2.65
2023-10-30T08:56:39.901Z,2.80
2023-10-30T08:59:25.705Z,3.53
2023-10-30T09:02:11.658Z,2.90
2023-10-30T09:04:57.303Z,2.80
2023-10-30T09:07:44.347Z,2.72
2023-10-30T09:10:33.646Z,2.45
2023-10-30T09:13:19.581Z,2.55
2023-10-30T09:16:06.357Z,2.67
2023-10-30T09:18:53.969Z,2.05
2023-10-30T09:21:39.752Z,2.55
2023-10-30T09:24:27.869Z,2.08
2023-10-30T09:27:13.719Z,2.22
2023-10-30T09:29:59.948Z,2.10
2023-10-30T09:32:46.272Z,2.47
2023-10-30T09:35:33.336Z,2.10
2023-10-30T09:38:19.301Z,2.25
2023-10-30T09:41:08.426Z,2.35
2023-10-30T09:43:55.051Z,3.00
2023-10-30T09:46:41.821Z,2.60
2023-10-30T09:49:29.605Z,2.00
2023-10-30T09:52:16.977Z,2.28
2023-10-30T09:55:06.267Z,3.03
2023-10-30T09:57:53.054Z,4.35
2023-10-30T10:00:39.176Z,4.78
2023-10-30T10:03:25.573Z,3.33
2023-10-30T10:06:11.500Z,3.22
2023-10-30T10:08:57.644Z,2.08
2023-10-30T10:11:44.237Z,2.90
2023-10-30T10:14:33.348Z,2.13
2023-10-30T10:17:19.302Z,2.30
2023-10-30T10:20:05.634Z,1.70
2023-10-30T10:22:51.241Z,1.42
2023-10-30T10:25:37.052Z,2.30
2023-10-30T10:28:27.001Z,2.00
2023-10-30T10:31:13.071Z,1.90
2023-10-30T10:33:59.198Z,2.78
2023-10-30T10:36:47.344Z,1.80
2023-10-30T10:39:53.326Z,2.08
2023-10-30T10:42:40.986Z,2.50
2023-10-30T10:45:26.944Z,1.95
2023-10-30T10:48:13.289Z,2.10
2023-10-30T10:51:02.021Z,2.00
2023-10-30T10:53:50.259Z,2.03
2023-10-30T10:56:38.921Z,2.08
2023-10-30T10:59:27.809Z,2.40
2023-10-30T11:02:21.905Z,1.90
2023-10-30T11:05:09.079Z,1.70
2023-10-30T11:08:04.799Z,1.73
2023-10-30T11:10:56.221Z,1.60
2023-10-30T11:14:12.886Z,2.20
2023-10-30T11:17:03.157Z,2.50
2023-10-30T11:19:49.064Z,2.67
2023-10-30T11:22:42.342Z,2.00
2023-10-30T11:25:37.101Z,2.42
2023-10-30T11:28:24.682Z,2.08
2023-10-30T11:31:10.492Z,2.60
2023-10-30T11:34:15.324Z,2.25
2023-10-30T11:37:15.896Z,2.00
2023-10-30T11:40:07.745Z,2.45
2023-10-30T11:42:57.852Z,2.10
2023-10-30T11:45:44.217Z,2.97
2023-10-30T11:48:31.048Z,2.72
2023-10-30T11:51:20.263Z,2.88
2023-10-30T11:54:06.608Z,2.08
2023-10-30T11:56:53.420Z,2.25
2023-10-30T11:59:39.812Z,2.50
2023-10-30T12:02:26.205Z,2.20
2023-10-30T12:05:12.494Z,2.80
2023-10-30T12:07:59.909Z,1.83
2023-10-30T12:10:49.430Z,2.40
2023-10-30T12:13:36.089Z,2.97
2023-10-30T12:16:24.472Z,2.40
2023-10-30T12:19:11.179Z,2.45
2023-10-30T12:21:57.408Z,1.85
2023-10-30T12:24:47.654Z,2.35
2023-10-30T12:27:34.806Z,2.63
2023-10-30T12:30:21.913Z,1.85
2023-10-30T12:33:14.321Z,2.33
2023-10-30T12:36:00.677Z,2.38
2023-10-30T12:38:49.894Z,3.03
2023-10-30T12:41:36.381Z,3.47
2023-10-30T12:44:25.285Z,2.60
2023-10-30T12:47:12.562Z,2.35
2023-10-30T12:49:58.488Z,2.55
2023-10-30T12:52:44.701Z,3.30
2023-10-30T12:55:30.552Z,2.50
2023-10-30T12:58:16.749Z,3.00
2023-10-30T13:03:54.182Z,3.03
2023-10-30T13:06:40.045Z,4.80
2023-10-30T13:09:26.090Z,2.83
2023-10-30T13:12:12.072Z,2.60
2023-10-30T13:14:58.151Z,3.17
2023-10-30T13:17:44.265Z,3.38
2023-10-30T13:20:29.963Z,2.70
2023-10-30T13:23:15.541Z,2.90
2023-10-30T13:26:01.512Z,2.60
2023-10-30T13:28:46.877Z,2.90
2023-10-30T13:31:32.717Z,2.97
2023-10-30T13:34:18.354Z,2.67
2023-10-30T13:37:06.254Z,2.97
2023-10-30T13:39:52.441Z,2.95
2023-10-30T13:42:38.722Z,3.35
2023-10-30T13:45:25.496Z,2.70
2023-10-30T13:48:11.614Z,2.65
2023-10-30T13:50:59.262Z,2.88
2023-10-30T13:53:45.360Z,2.35
2023-10-30T13:56:32.181Z,3.10
2023-10-30T13:59:18.492Z,3.60
2023-10-30T14:02:04.245Z,4.78
2023-10-30T14:04:53.407Z,3.35
2023-10-30T14:07:39.399Z,2.65
2023-10-30T14:10:25.201Z,3.30
2023-10-30T14:13:10.974Z,3.33
2023-10-30T14:15:57.464Z,3.30
2023-10-30T14:18:43.268Z,2.80
2023-10-30T14:21:29.556Z,3.50
2023-10-30T14:24:15.606Z,3.22
2023-10-30T14:27:02.773Z,3.25
2023-10-30T14:29:49.070Z,4.47
2023-10-30T14:32:35.004Z,3.33
2023-10-30T14:35:21.049Z,4.75
2023-10-30T14:38:06.902Z,11.18
2023-10-30T14:40:52.877Z,26.35
2023-10-30T14:43:39.026Z,32.78
2023-10-30T14:46:26.232Z,51.42
2023-10-30T14:49:12.601Z,40.72
2023-10-30T14:52:00.264Z,32.55
2023-10-30T14:54:46.428Z,16.00
2023-10-30T14:57:32.450Z,15.60
2023-10-30T15:00:18.514Z,14.20
2023-10-30T15:03:04.471Z,13.80
2023-10-30T15:05:51.469Z,18.20
2023-10-30T15:08:37.289Z,60.38
2023-10-30T15:11:23.439Z,76.05
2023-10-30T15:14:09.766Z,46.17
2023-10-30T15:16:57.883Z,61.35
2023-10-30T15:19:43.537Z,25.25
2023-10-30T15:22:29.728Z,28.90
2023-10-30T15:25:15.676Z,49.38
2023-10-30T15:28:02.721Z,56.70
2023-10-30T15:30:52.374Z,40.97
2023-10-30T15:33:38.836Z,55.75
2023-10-30T15:36:28.233Z,54.95
2023-10-30T15:39:15.972Z,56.17
2023-10-30T15:42:02.210Z,49.17
2023-10-30T15:44:48.331Z,65.20
2023-10-30T15:47:36.265Z,74.38
2023-10-30T15:50:25.541Z,51.55
2023-10-30T15:58:48.644Z,36.90
2023-10-30T16:01:35.124Z,33.80
2023-10-30T16:04:21.404Z,34.38
2023-10-30T16:07:08.505Z,37.63
2023-10-30T16:10:11.925Z,37.75
2023-10-30T16:13:00.645Z,31.55
2023-10-30T16:15:49.713Z,27.25
2023-10-30T16:18:35.873Z,25.10
2023-10-30T16:21:23.927Z,22.50
2023-10-30T16:24:11.437Z,20.85
2023-10-30T16:26:58.197Z,20.67
2023-10-30T16:29:45.109Z,21.88
2023-10-30T16:32:30.947Z,23.83
2023-10-30T16:35:17.015Z,24.63
2023-10-30T16:38:02.697Z,122.78
2023-10-30T16:40:48.925Z,33.55
2023-10-30T16:43:34.949Z,38.42
2023-10-30T16:46:20.949Z,49.30
2023-10-30T16:49:06.853Z,49.95
2023-10-30T16:51:52.920Z,50.92
2023-10-30T16:54:38.886Z,56.03
2023-10-30T16:57:24.744Z,79.57
2023-10-30T17:00:11.230Z,83.70
2023-10-30T17:02:57.321Z,82.40
2023-10-30T17:05:43.390Z,73.07
2023-10-30T17:08:29.400Z,78.13
2023-10-30T17:11:16.465Z,77.97
2023-10-30T17:14:02.448Z,75.72
2023-10-30T17:16:48.647Z,86.28
2023-10-30T17:19:34.699Z,67.18
2023-10-30T17:22:20.719Z,72.47
2023-10-30T17:25:07.306Z,75.65
2023-10-30T17:27:53.238Z,73.22
2023-10-30T17:30:39.877Z,92.32
2023-10-30T17:33:26.324Z,167.35
2023-10-30T17:36:12.360Z,127.32
2023-10-30T17:38:58.139Z,70.57
2023-10-30T17:41:44.318Z,72.65
2023-10-30T17:44:30.199Z,96.07
2023-10-30T17:47:16.440Z,67.60
2023-10-30T17:50:02.513Z,89.55
2023-10-30T17:52:49.713Z,53.60
2023-10-30T17:55:35.810Z,57.47
2023-10-30T17:58:22.152Z,65.72
2023-10-30T18:01:15.586Z,237.25
2023-10-30T18:04:01.570Z,65.00
2023-10-30T18:06:47.411Z,68.50
2023-10-30T18:09:33.214Z,90.55
2023-10-30T18:12:18.741Z,75.90
2023-10-30T18:15:05.302Z,49.08
2023-10-30T18:17:51.449Z,103.40
2023-10-30T18:20:44.362Z,54.38
2023-10-30T18:23:32.635Z,58.10
2023-10-30T18:26:24.219Z,58.20
2023-10-30T18:29:13.614Z,49.55
2023-10-30T18:32:04.119Z,36.00
2023-10-30T18:34:49.853Z,29.90
2023-10-30T18:37:35.557Z,30.30
2023-10-30T18:40:21.267Z,28.80
2023-10-30T18:43:07.478Z,26.98
2023-10-30T18:45:53.616Z,26.63
2023-10-30T18:48:39.656Z,28.83
2023-10-30T18:51:26.644Z,28.90
2023-10-30T18:54:13.123Z,29.52
2023-10-30T18:56:59.494Z,28.95
2023-10-30T18:59:45.503Z,33.35
2023-10-30T19:02:31.475Z,23.48
2023-10-30T19:05:17.606Z,20.27
2023-10-30T19:08:04.686Z,18.58
2023-10-30T19:10:51.134Z,24.70
2023-10-30T19:13:37.267Z,17.17
2023-10-30T19:16:23.337Z,17.27
2023-10-30T19:19:09.030Z,16.98
2023-10-30T19:21:54.674Z,16.65
2023-10-30T19:24:40.331Z,17.77
2023-10-30T19:27:26.260Z,19.02
2023-10-30T19:30:12.658Z,19.88
2023-10-30T19:32:59.278Z,27.08
2023-10-30T19:35:44.794Z,39.47
2023-10-30T19:38:32.194Z,26.38
2023-10-30T19:41:17.816Z,22.63
2023-10-30T19:44:04.090Z,31.85
2023-10-30T19:46:50.359Z,25.02
2023-10-30T19:49:36.512Z,29.90
2023-10-30T19:52:21.931Z,25.27
2023-10-30T19:55:09.061Z,27.85
2023-10-30T19:57:55.042Z,29.65
2023-10-30T20:00:40.735Z,28.33
2023-10-30T20:03:26.299Z,24.75
2023-10-30T20:06:12.160Z,26.65
2023-10-30T20:08:57.545Z,20.13
2023-10-30T20:11:44.073Z,22.70
2023-10-30T20:14:29.964Z,21.73
2023-10-30T20:17:16.055Z,19.33
2023-10-30T20:20:01.873Z,20.35
2023-10-30T20:22:48.228Z,19.20
2023-10-30T20:25:33.875Z,24.60
2023-10-30T20:28:19.970Z,27.23
2023-10-30T20:31:05.953Z,23.55
2023-10-30T20:33:51.927Z,27.88
2023-10-30T20:36:38.440Z,24.83
2023-10-30T20:39:26.159Z,22.90
2023-10-30T20:42:11.881Z,25.35
2023-10-30T20:44:58.191Z,24.30
2023-10-30T20:47:44.462Z,23.80
2023-10-30T20:50:30.579Z,22.83
2023-10-30T20:53:17.741Z,25.98
2023-10-30T20:56:04.530Z,22.75
2023-10-30T20:58:50.440Z,21.92
2023-10-30T21:01:36.700Z,20.77
2023-10-30T21:04:22.866Z,32.80
2023-10-30T21:07:08.803Z,39.28
2023-10-30T21:09:55.232Z,25.83
2023-10-30T21:12:41.448Z,24.65
2023-10-30T21:15:26.971Z,24.10
2023-10-30T21:18:13.530Z,21.67
2023-10-30T21:21:00.042Z,23.50
2023-10-30T21:23:46.209Z,25.23
2023-10-30T21:26:32.500Z,23.67
2023-10-30T21:29:20.132Z,22.58
2023-10-30T21:32:06.668Z,23.10
2023-10-30T21:34:52.697Z,22.20
2023-10-30T21:37:38.996Z,23.88
2023-10-30T21:40:24.732Z,24.27
2023-10-30T21:43:10.359Z,23.80
2023-10-30T21:45:56.619Z,24.48
2023-10-30T21:48:43.753Z,24.38
2023-10-30T21:51:30.098Z,25.27
2023-10-30T21:54:16.058Z,24.42
2023-10-30T21:57:02.299Z,25.73
2023-10-30T21:59:48.223Z,24.33
2023-10-30T22:02:34.797Z,24.55
2023-10-30T22:05:22.163Z,24.33
2023-10-30T22:08:09.628Z,24.60
2023-10-30T22:10:55.309Z,25.05
2023-10-30T22:13:41.693Z,23.85
2023-10-30T22:16:27.535Z,23.58
2023-10-30T22:19:13.493Z,23.90
2023-10-30T22:21:59.239Z,22.38
2023-10-30T22:24:45.528Z,21.13
2023-10-30T22:27:32.173Z,21.60
2023-10-30T22:30:25.826Z,20.98
2023-10-30T22:33:14.528Z,20.67
2023-10-30T22:36:03.276Z,21.23
2023-10-30T22:38:49.258Z,20.65
2023-10-30T22:41:34.998Z,20.60
2023-10-30T22:44:21.124Z,18.98
2023-10-30T22:47:07.687Z,19.27
2023-10-30T22:49:53.743Z,19.40
2023-10-30T22:52:40.386Z,18.10
2023-10-30T22:55:29.229Z,18.10
2023-10-30T22:58:15.573Z,17.35
2023-10-30T23:01:01.440Z,17.00
2023-10-30T23:03:48.964Z,15.88
2023-10-30T23:06:34.835Z,16.90
2023-10-30T23:09:21.934Z,16.95
2023-10-30T23:12:07.802Z,16.83
2023-10-30T23:14:53.989Z,16.67
2023-10-30T23:17:40.028Z,16.15
2023-10-30T23:20:27.766Z,16.63
2023-10-30T23:23:13.463Z,15.90
2023-10-30T23:26:00.782Z,16.27
2023-10-30T23:28:46.823Z,16.33
2023-10-30T23:31:33.284Z,15.98
2023-10-30T23:34:19.403Z,16.15
2023-10-30T23:37:05.832Z,16.67
2023-10-30T23:39:52.210Z,16.42
2023-10-30T23:42:38.185Z,15.77
2023-10-30T23:45:25.014Z,16.20
2023-10-30T23:48:14.002Z,16.02
2023-10-30T23:51:00.263Z,15.80
2023-10-30T23:53:46.016Z,18.13
2023-10-30T23:56:31.851Z,14.90
2023-10-30T23:59:17.834Z,15.38
